Widnes, United Kingdom
Current Conditions -  °F | °C
As of 2:20 PM on Monday 20 Oct 2014 (Local Time) from EGGP Reporting Station
Scattered Clouds Scattered Clouds  
Wind Chill: 59°   Ceiling: Unl
Heat Index: 59°   Visibility: 6mi
Dew Point: 50°   Wind: 14mph
Humidity: 72%   Direction: 250°WSW
Pressure: 29.85"   Gusts: NA
Location:  53.36°N, 2.73°W
Report Text: EGGP 201320Z 25012KT 9999 FEW030 SCT037 15/10 Q1011
Loading
Personal Weather Stations






























Interactive Weather Map New forecast layout! Learn more

10-Day Weather Forecast

Advertisements
Track Severe Weather on mobile